createdAt,value
2018-10-07T00:00:04.541Z,89.08
2018-10-07T00:01:04.544Z,89.08
2018-10-07T00:02:04.549Z,88.79
2018-10-07T00:03:04.557Z,88.60
2018-10-07T00:04:04.564Z,89.56
2018-10-07T00:05:04.563Z,88.98
2018-10-07T00:06:04.567Z,89.47
2018-10-07T00:07:04.576Z,89.51
2018-10-07T00:08:04.579Z,89.51
2018-10-07T00:09:04.582Z,89.85
2018-10-07T00:10:04.589Z,88.98
2018-10-07T00:11:04.592Z,88.60
2018-10-07T00:12:04.597Z,89.18
2018-10-07T00:13:04.604Z,89.18
2018-10-07T00:14:04.613Z,89.18
2018-10-07T00:15:04.618Z,88.70
2018-10-07T00:16:04.625Z,88.70
2018-10-07T00:17:04.624Z,88.31
2018-10-07T00:18:04.624Z,88.89
2018-10-07T00:19:04.629Z,88.60
2018-10-07T00:20:04.633Z,89.08
2018-10-07T00:21:04.638Z,88.70
2018-10-07T00:22:04.643Z,88.60
2018-10-07T00:23:04.647Z,88.60
2018-10-07T00:24:04.652Z,88.41
2018-10-07T00:25:04.659Z,88.70
2018-10-07T00:26:04.663Z,89.08
2018-10-07T00:27:04.670Z,89.18
2018-10-07T00:28:04.673Z,89.56
2018-10-07T00:29:04.674Z,89.08
2018-10-07T00:30:04.680Z,88.70
2018-10-07T00:31:04.687Z,88.60
2018-10-07T00:32:04.702Z,88.70
2018-10-07T00:33:04.694Z,88.70
2018-10-07T00:34:04.699Z,88.12
2018-10-07T00:35:04.703Z,87.84
2018-10-07T00:36:04.707Z,87.45
2018-10-07T00:37:04.711Z,87.55
2018-10-07T00:38:04.718Z,87.93
2018-10-07T00:39:04.721Z,88.60
2018-10-07T00:40:04.725Z,88.70
2018-10-07T00:41:04.735Z,88.60
2018-10-07T00:42:04.740Z,88.98
2018-10-07T00:43:04.741Z,88.98
2018-10-07T00:44:04.746Z,89.18
2018-10-07T00:45:04.749Z,88.79
2018-10-07T00:46:04.755Z,88.41
2018-10-07T00:47:04.760Z,88.41
2018-10-07T00:48:04.763Z,88.22
2018-10-07T00:49:04.769Z,88.41
2018-10-07T00:50:04.775Z,88.89
2018-10-07T00:51:04.782Z,88.98
2018-10-07T00:52:04.783Z,89.27
2018-10-07T00:53:04.789Z,89.56
2018-10-07T00:54:04.791Z,89.27
2018-10-07T00:55:04.802Z,88.79
2018-10-07T00:56:04.801Z,88.89
2018-10-07T00:57:04.809Z,89.08
2018-10-07T00:58:04.814Z,88.79
2018-10-07T00:59:04.815Z,89.08
2018-10-07T01:00:04.830Z,89.47
2018-10-07T01:01:04.824Z,88.98
2018-10-07T01:02:04.828Z,89.18
2018-10-07T01:03:04.847Z,89.18
2018-10-07T01:04:04.840Z,88.60
2018-10-07T01:05:04.846Z,88.51
2018-10-07T01:06:04.848Z,88.51
2018-10-07T01:07:04.858Z,88.60
2018-10-07T01:08:04.855Z,88.12
2018-10-07T01:09:04.861Z,87.84
2018-10-07T01:10:04.868Z,88.70
2018-10-07T01:11:04.878Z,88.12
2018-10-07T01:12:04.873Z,87.93
2018-10-07T01:13:04.879Z,87.84
2018-10-07T01:14:04.885Z,88.31
2018-10-07T01:15:04.889Z,88.22
2018-10-07T01:16:04.892Z,88.31
2018-10-07T01:17:04.897Z,88.31
2018-10-07T01:18:04.901Z,88.22
2018-10-07T01:19:04.907Z,88.02
2018-10-07T01:20:04.915Z,87.74
2018-10-07T01:21:04.916Z,87.68
2018-10-07T01:22:04.922Z,87.93
2018-10-07T01:23:04.925Z,87.74
2018-10-07T01:24:04.928Z,87.64
2018-10-07T01:25:04.933Z,88.12
2018-10-07T01:26:04.938Z,88.02
2018-10-07T01:27:04.947Z,88.70
2018-10-07T01:28:04.949Z,88.31
2018-10-07T01:29:04.952Z,88.22
2018-10-07T01:30:04.960Z,87.64
2018-10-07T01:31:04.965Z,88.02
2018-10-07T01:32:04.971Z,87.84
2018-10-07T01:33:04.975Z,87.55
2018-10-07T01:34:04.980Z,87.26
2018-10-07T01:35:04.983Z,87.07
2018-10-07T01:36:04.985Z,87.84
2018-10-07T01:37:04.989Z,88.12
2018-10-07T01:38:04.993Z,87.55
2018-10-07T01:39:04.999Z,86.88
2018-10-07T01:40:05.003Z,87.45
2018-10-07T01:41:05.007Z,87.93
2018-10-07T01:42:05.017Z,87.45
2018-10-07T01:43:05.017Z,87.16
2018-10-07T01:44:05.032Z,87.07
2018-10-07T01:45:05.031Z,87.84
2018-10-07T01:46:05.045Z,87.35
2018-10-07T01:47:05.036Z,88.12
2018-10-07T01:48:05.048Z,87.74
2018-10-07T01:49:05.045Z,88.02
2018-10-07T01:50:05.073Z,88.31
2018-10-07T01:51:05.053Z,88.12
2018-10-07T01:52:05.059Z,87.64
2018-10-07T01:53:05.063Z,87.35
2018-10-07T01:54:05.067Z,86.78
2018-10-07T01:55:05.074Z,86.88
2018-10-07T01:56:05.076Z,87.07
2018-10-07T01:57:05.082Z,87.07
2018-10-07T01:58:05.090Z,87.74
2018-10-07T01:59:05.089Z,87.84
2018-10-07T02:00:05.094Z,88.31
2018-10-07T02:01:05.099Z,88.41
2018-10-07T02:02:05.104Z,88.31
2018-10-07T02:03:05.109Z,88.02
2018-10-07T02:04:05.115Z,87.55
2018-10-07T02:05:05.179Z,87.64
2018-10-07T02:06:05.125Z,87.55
2018-10-07T02:07:05.130Z,87.26
2018-10-07T02:08:05.133Z,87.35
2018-10-07T02:09:05.138Z,87.26
2018-10-07T02:10:05.147Z,87.55
2018-10-07T02:11:05.143Z,87.79
2018-10-07T02:12:05.150Z,87.74
2018-10-07T02:13:05.153Z,87.55
2018-10-07T02:14:05.205Z,88.02
2018-10-07T02:15:05.163Z,87.79
2018-10-07T02:16:05.165Z,87.55
2018-10-07T02:17:05.170Z,87.12
2018-10-07T02:18:05.178Z,86.97
2018-10-07T02:19:05.183Z,87.07
2018-10-07T02:20:05.184Z,86.58
2018-10-07T02:21:05.191Z,86.78
2018-10-07T02:22:05.193Z,86.49
2018-10-07T02:23:05.199Z,87.60
2018-10-07T02:24:05.209Z,87.07
2018-10-07T02:25:05.208Z,86.88
2018-10-07T02:26:05.210Z,86.35
2018-10-07T02:27:05.217Z,86.83
2018-10-07T02:28:05.221Z,86.83
2018-10-07T02:29:05.228Z,87.07
2018-10-07T02:30:05.232Z,87.31
2018-10-07T02:31:05.233Z,87.88
2018-10-07T02:32:05.238Z,87.41
2018-10-07T02:33:05.243Z,87.79
2018-10-07T02:34:05.252Z,87.60
2018-10-07T02:35:05.250Z,88.08
2018-10-07T02:36:05.256Z,87.60
2018-10-07T02:37:05.260Z,87.12
2018-10-07T02:38:05.262Z,87.12
2018-10-07T02:39:05.267Z,87.70
2018-10-07T02:40:05.272Z,87.41
2018-10-07T02:41:05.275Z,87.84
2018-10-07T02:42:05.281Z,88.13
2018-10-07T02:43:05.288Z,88.32
2018-10-07T02:44:05.308Z,88.23
2018-10-07T02:45:05.306Z,87.94
2018-10-07T02:46:05.297Z,88.32
2018-10-07T02:47:05.302Z,87.74
2018-10-07T02:48:05.304Z,87.60
2018-10-07T02:49:05.309Z,87.84
2018-10-07T02:50:05.319Z,87.65
2018-10-07T02:51:05.321Z,87.21
2018-10-07T02:52:05.321Z,87.17
2018-10-07T02:53:05.371Z,87.41
2018-10-07T02:54:05.332Z,86.79
2018-10-07T02:55:05.335Z,87.37
2018-10-07T02:56:05.337Z,87.94
2018-10-07T02:57:05.342Z,87.55
2018-10-07T02:58:05.349Z,87.37
2018-10-07T02:59:05.356Z,88.51
2018-10-07T03:00:05.357Z,88.37
2018-10-07T03:01:05.366Z,87.74
2018-10-07T03:02:05.364Z,87.27
2018-10-07T03:03:05.367Z,86.98
2018-10-07T03:04:05.369Z,87.55
2018-10-07T03:05:05.377Z,88.80
2018-10-07T03:06:05.381Z,88.66
2018-10-07T03:07:05.390Z,88.56
2018-10-07T03:08:05.396Z,88.37
2018-10-07T03:09:05.392Z,88.66
2018-10-07T03:10:05.394Z,88.28
2018-10-07T03:11:05.401Z,88.09
2018-10-07T03:12:05.402Z,88.18
2018-10-07T03:13:05.406Z,87.99
2018-10-07T03:14:05.410Z,88.09
2018-10-07T03:15:05.416Z,88.18
2018-10-07T03:16:05.421Z,88.32
2018-10-07T03:17:05.422Z,88.47
2018-10-07T03:18:05.427Z,88.09
2018-10-07T03:19:05.436Z,88.28
2018-10-07T03:20:05.432Z,88.28
2018-10-07T03:21:05.437Z,87.74
2018-10-07T03:22:05.443Z,87.65
2018-10-07T03:23:05.447Z,87.17
2018-10-07T03:24:05.447Z,87.51
2018-10-07T03:25:05.452Z,87.70
2018-10-07T03:26:05.459Z,88.18
2018-10-07T03:27:05.460Z,87.90
2018-10-07T03:28:05.469Z,87.61
2018-10-07T03:29:05.472Z,87.90
2018-10-07T03:30:05.470Z,88.18
2018-10-07T03:31:05.476Z,88.37
2018-10-07T03:32:05.479Z,89.14
2018-10-07T03:33:05.487Z,88.56
2018-10-07T03:34:05.492Z,89.04
2018-10-07T03:35:05.493Z,89.14
2018-10-07T03:36:05.507Z,89.62
2018-10-07T03:37:05.497Z,89.33
2018-10-07T03:38:05.502Z,89.62
2018-10-07T03:39:05.505Z,88.95
2018-10-07T03:40:05.509Z,89.04
2018-10-07T03:41:05.516Z,88.85
2018-10-07T03:42:05.515Z,88.62
2018-10-07T03:43:05.520Z,89.23
2018-10-07T03:44:05.527Z,89.29
2018-10-07T03:45:05.527Z,89.76
2018-10-07T03:46:05.531Z,89.76
2018-10-07T03:47:05.534Z,90.44
2018-10-07T03:48:05.537Z,90.24
2018-10-07T03:49:05.539Z,90.63
2018-10-07T03:50:05.547Z,89.95
2018-10-07T03:51:05.547Z,88.95
2018-10-07T03:52:05.551Z,89.23
2018-10-07T03:53:05.555Z,89.29
2018-10-07T03:54:05.559Z,89.95
2018-10-07T03:55:05.563Z,89.48
2018-10-07T03:56:05.568Z,89.76
2018-10-07T03:57:05.573Z,89.58
2018-10-07T03:58:05.572Z,89.38
2018-10-07T03:59:05.587Z,88.47
2018-10-07T04:00:05.579Z,88.28
2018-10-07T04:01:05.582Z,88.28
2018-10-07T04:02:05.586Z,88.95
2018-10-07T04:03:05.592Z,89.19
2018-10-07T04:04:05.593Z,89.48
2018-10-07T04:05:05.600Z,89.76
2018-10-07T04:06:05.599Z,88.66
2018-10-07T04:07:05.607Z,87.95
2018-10-07T04:08:05.608Z,88.52
2018-10-07T04:09:05.610Z,88.33
2018-10-07T04:10:05.613Z,89.00
2018-10-07T04:11:05.621Z,88.43
2018-10-07T04:12:05.630Z,89.00
2018-10-07T04:13:05.623Z,89.29
2018-10-07T04:14:05.628Z,88.90
2018-10-07T04:15:05.632Z,88.43
2018-10-07T04:16:05.635Z,88.23
2018-10-07T04:17:05.637Z,88.43
2018-10-07T04:18:05.642Z,88.52
2018-10-07T04:19:05.644Z,89.00
2018-10-07T04:20:05.646Z,88.62
2018-10-07T04:21:05.649Z,88.71
2018-10-07T04:22:05.654Z,88.23
2018-10-07T04:23:05.658Z,88.43
2018-10-07T04:24:05.659Z,89.05
2018-10-07T04:25:05.670Z,88.86
2018-10-07T04:26:05.669Z,89.09
2018-10-07T04:27:05.671Z,87.56
2018-10-07T04:28:05.675Z,87.95
2018-10-07T04:29:05.678Z,87.56
2018-10-07T04:30:05.680Z,88.23
2018-10-07T04:31:05.682Z,88.23
2018-10-07T04:32:05.687Z,88.13
2018-10-07T04:33:05.692Z,88.57
2018-10-07T04:34:05.698Z,88.67
2018-10-07T04:35:05.696Z,88.38
2018-10-07T04:36:05.703Z,89.34
2018-10-07T04:37:05.708Z,89.15
2018-10-07T04:38:05.705Z,88.48
2018-10-07T04:39:05.710Z,88.86
2018-10-07T04:40:05.717Z,88.38
2018-10-07T04:41:05.721Z,88.86
2018-10-07T04:42:05.720Z,88.48
2018-10-07T04:43:05.723Z,88.13
2018-10-07T04:44:05.723Z,87.52
2018-10-07T04:45:05.729Z,88.48
2018-10-07T04:46:05.731Z,88.29
2018-10-07T04:47:05.738Z,89.05
2018-10-07T04:48:05.737Z,88.38
2018-10-07T04:49:05.740Z,88.67
2018-10-07T04:50:05.746Z,88.09
2018-10-07T04:51:05.746Z,88.04
2018-10-07T04:52:05.751Z,87.47
2018-10-07T04:53:05.752Z,86.70
2018-10-07T04:54:05.755Z,86.61
2018-10-07T04:55:05.759Z,86.70
2018-10-07T04:56:05.767Z,86.57
2018-10-07T04:57:05.766Z,87.43
2018-10-07T04:58:05.769Z,87.33
2018-10-07T04:59:05.771Z,88.67
2018-10-07T05:00:05.806Z,88.72
2018-10-07T05:01:05.779Z,88.76
2018-10-07T05:02:05.779Z,89.20
2018-10-07T05:03:05.783Z,88.53
2018-10-07T05:04:05.785Z,89.34
2018-10-07T05:05:05.789Z,88.86
2018-10-07T05:06:05.790Z,88.00
2018-10-07T05:07:05.798Z,88.48
2018-10-07T05:08:05.803Z,88.57
2018-10-07T05:09:05.810Z,88.86
2018-10-07T05:10:05.807Z,88.67
2018-10-07T05:11:05.808Z,88.57
2018-10-07T05:12:05.855Z,88.19
2018-10-07T05:13:05.812Z,88.15
2018-10-07T05:14:05.815Z,88.24
2018-10-07T05:15:05.820Z,88.53
2018-10-07T05:16:05.827Z,88.53
2018-10-07T05:17:05.828Z,88.05
2018-10-07T05:18:05.827Z,88.72
2018-10-07T05:19:05.829Z,88.62
2018-10-07T05:20:05.835Z,87.90
2018-10-07T05:21:05.861Z,87.00
2018-10-07T05:22:05.838Z,87.66
2018-10-07T05:23:05.842Z,88.53
2018-10-07T05:24:05.847Z,88.34
2018-10-07T05:25:05.855Z,88.34
2018-10-07T05:26:05.865Z,89.01
2018-10-07T05:27:05.855Z,88.34
2018-10-07T05:28:05.862Z,88.43
2018-10-07T05:29:05.858Z,88.05
2018-10-07T05:30:05.865Z,88.34
2018-10-07T05:31:05.865Z,88.72
2018-10-07T05:32:05.866Z,89.20
2018-10-07T05:33:05.879Z,89.77
2018-10-07T05:34:05.879Z,89.58
2018-10-07T05:35:05.876Z,89.10
2018-10-07T05:36:05.893Z,89.67
2018-10-07T05:37:05.881Z,88.53
2018-10-07T05:38:05.884Z,87.95
2018-10-07T05:39:05.892Z,87.52
2018-10-07T05:40:05.887Z,87.57
2018-10-07T05:41:05.892Z,88.15
2018-10-07T05:42:05.896Z,87.86
2018-10-07T05:43:05.897Z,88.15
2018-10-07T05:44:05.905Z,88.05
2018-10-07T05:45:05.903Z,88.43
2018-10-07T05:46:05.909Z,88.05
2018-10-07T05:47:05.914Z,87.76
2018-10-07T05:48:05.911Z,87.86
2018-10-07T05:49:05.913Z,87.19
2018-10-07T05:50:05.921Z,86.90
2018-10-07T05:51:05.919Z,85.99
2018-10-07T05:52:05.922Z,85.61
2018-10-07T05:53:05.925Z,85.89
2018-10-07T05:54:05.927Z,87.09
2018-10-07T05:55:05.930Z,87.43
2018-10-07T05:56:05.936Z,86.76
2018-10-07T05:57:05.935Z,86.85
2018-10-07T05:58:05.943Z,87.29
2018-10-07T05:59:05.946Z,87.95
2018-10-07T06:00:05.944Z,88.24
2018-10-07T06:01:05.947Z,87.48
2018-10-07T06:02:06.037Z,88.43
2018-10-07T06:03:05.953Z,88.05
2018-10-07T06:04:05.954Z,87.95
2018-10-07T06:05:05.958Z,87.76
2018-10-07T06:06:05.960Z,87.57
2018-10-07T06:07:05.962Z,87.23
2018-10-07T06:08:05.967Z,87.29
2018-10-07T06:09:05.975Z,87.33
2018-10-07T06:10:05.979Z,86.80
2018-10-07T06:11:05.974Z,87.86
2018-10-07T06:12:05.975Z,87.86
2018-10-07T06:13:05.980Z,88.34
2018-10-07T06:14:05.986Z,88.48
2018-10-07T06:15:05.987Z,88.57
2018-10-07T06:16:05.987Z,87.81
2018-10-07T06:17:05.992Z,87.33
2018-10-07T06:18:06.029Z,88.43
2018-10-07T06:19:05.998Z,87.76
2018-10-07T06:20:06.005Z,88.43
2018-10-07T06:21:06.000Z,88.53
2018-10-07T06:22:06.007Z,89.10
2018-10-07T06:23:06.009Z,88.91
2018-10-07T06:24:06.015Z,87.90
2018-10-07T06:25:06.014Z,88.00
2018-10-07T06:26:06.015Z,87.43
2018-10-07T06:27:06.017Z,86.47
2018-10-07T06:28:06.021Z,87.23
2018-10-07T06:29:06.026Z,87.33
2018-10-07T06:30:06.026Z,87.62
2018-10-07T06:31:06.036Z,87.43
2018-10-07T06:32:06.035Z,87.43
2018-10-07T06:33:06.032Z,88.00
2018-10-07T06:34:06.036Z,87.81
2018-10-07T06:35:06.038Z,88.04
2018-10-07T06:36:06.044Z,87.76
2018-10-07T06:37:06.045Z,87.18
2018-10-07T06:38:06.048Z,86.99
2018-10-07T06:39:06.050Z,87.47
2018-10-07T06:40:06.054Z,87.08
2018-10-07T06:41:06.060Z,86.70
2018-10-07T06:42:06.060Z,86.22
2018-10-07T06:43:06.061Z,86.61
2018-10-07T06:44:06.064Z,86.41
2018-10-07T06:45:06.073Z,86.61
2018-10-07T06:46:06.072Z,86.90
2018-10-07T06:47:06.074Z,86.70
2018-10-07T06:48:06.078Z,86.70
2018-10-07T06:49:06.084Z,86.13
2018-10-07T06:50:06.082Z,86.74
2018-10-07T06:51:06.085Z,85.79
2018-10-07T06:52:06.086Z,86.74
2018-10-07T06:53:06.090Z,86.17
2018-10-07T06:54:06.097Z,86.27
2018-10-07T06:55:06.101Z,86.84
2018-10-07T06:56:06.099Z,86.65
2018-10-07T06:57:06.102Z,87.13
2018-10-07T06:58:06.104Z,86.36
2018-10-07T06:59:06.113Z,85.88
2018-10-07T07:00:06.113Z,86.46
2018-10-07T07:01:06.116Z,86.55
2018-10-07T07:02:06.116Z,85.69
2018-10-07T07:03:06.122Z,86.74
2018-10-07T07:04:06.128Z,87.03
2018-10-07T07:05:06.133Z,87.32
2018-10-07T07:06:06.130Z,87.27
2018-10-07T07:07:06.134Z,86.98
2018-10-07T07:08:06.136Z,86.98
2018-10-07T07:09:06.139Z,86.98
2018-10-07T07:10:06.146Z,86.31
2018-10-07T07:11:06.150Z,86.60
2018-10-07T07:12:06.149Z,86.50
2018-10-07T07:13:06.246Z,86.79
2018-10-07T07:14:06.159Z,86.79
2018-10-07T07:15:06.164Z,86.60
2018-10-07T07:16:06.167Z,86.12
2018-10-07T07:17:06.169Z,85.83
2018-10-07T07:18:06.176Z,86.07
2018-10-07T07:19:06.182Z,85.88
2018-10-07T07:20:06.186Z,85.39
2018-10-07T07:21:06.179Z,85.88
2018-10-07T07:22:06.184Z,85.58
2018-10-07T07:23:06.188Z,85.11
2018-10-07T07:24:06.190Z,85.30
2018-10-07T07:25:06.195Z,85.30
2018-10-07T07:26:06.198Z,85.49
2018-10-07T07:27:06.205Z,86.07
2018-10-07T07:28:06.206Z,85.88
2018-10-07T07:29:06.208Z,85.49
2018-10-07T07:30:06.212Z,85.53
2018-10-07T07:31:06.219Z,85.34
2018-10-07T07:32:06.222Z,84.58
2018-10-07T07:33:06.227Z,84.28
2018-10-07T07:34:06.230Z,84.28
2018-10-07T07:35:06.233Z,84.19
2018-10-07T07:36:06.238Z,84.19
2018-10-07T07:37:06.240Z,83.42
2018-10-07T07:38:06.247Z,83.42
2018-10-07T07:39:06.254Z,83.81
2018-10-07T07:40:06.252Z,83.04
2018-10-07T07:41:06.288Z,83.14
2018-10-07T07:42:06.259Z,83.23
2018-10-07T07:43:06.263Z,83.23
2018-10-07T07:44:06.265Z,83.47
2018-10-07T07:45:06.270Z,82.70
2018-10-07T07:46:06.277Z,82.41
2018-10-07T07:47:06.278Z,82.21
2018-10-07T07:48:06.290Z,82.31
2018-10-07T07:49:06.359Z,81.93
2018-10-07T07:50:06.300Z,81.93
2018-10-07T07:51:06.296Z,81.93
2018-10-07T07:52:06.306Z,82.03
2018-10-07T07:53:06.303Z,82.07
2018-10-07T07:54:06.307Z,81.40
2018-10-07T07:55:06.315Z,82.07
2018-10-07T07:56:06.316Z,81.40
2018-10-07T07:57:06.320Z,80.82
2018-10-07T07:58:06.325Z,81.30
2018-10-07T07:59:06.330Z,81.87
2018-10-07T08:00:06.334Z,81.87
2018-10-07T08:01:06.338Z,81.10
2018-10-07T08:02:06.344Z,81.10
2018-10-07T08:03:06.351Z,81.01
2018-10-07T08:04:06.352Z,81.01
2018-10-07T08:05:06.356Z,80.82
2018-10-07T08:06:06.361Z,81.10
2018-10-07T08:07:06.367Z,81.40
2018-10-07T08:08:06.370Z,80.66
2018-10-07T08:09:06.377Z,80.38
2018-10-07T08:10:06.383Z,79.99
2018-10-07T08:11:06.389Z,79.80
2018-10-07T08:12:06.391Z,79.52
2018-10-07T08:13:06.398Z,79.42
2018-10-07T08:14:06.398Z,78.27
2018-10-07T08:15:06.404Z,78.75
2018-10-07T08:16:06.409Z,77.69
2018-10-07T08:17:06.413Z,77.21
2018-10-07T08:18:06.418Z,77.11
2018-10-07T08:19:06.424Z,76.73
2018-10-07T08:20:06.427Z,75.23
2018-10-07T08:21:06.433Z,75.96
2018-10-07T08:22:06.436Z,75.90
2018-10-07T08:23:06.444Z,76.00
2018-10-07T08:24:06.449Z,76.39
2018-10-07T08:25:06.462Z,76.29
2018-10-07T08:26:06.459Z,76.39
2018-10-07T08:27:06.465Z,75.62
2018-10-07T08:28:06.473Z,76.00
2018-10-07T08:29:06.473Z,75.13
2018-10-07T08:30:06.480Z,75.13
2018-10-07T08:31:06.484Z,74.65
2018-10-07T08:32:06.492Z,75.23
2018-10-07T08:33:06.493Z,75.32
2018-10-07T08:34:06.502Z,75.32
2018-10-07T08:35:06.554Z,74.46
2018-10-07T08:36:06.510Z,74.50
2018-10-07T08:37:06.519Z,74.40
2018-10-07T08:38:06.524Z,74.60
2018-10-07T08:39:06.552Z,74.60
2018-10-07T08:40:06.536Z,74.02
2018-10-07T08:41:06.537Z,74.11
2018-10-07T08:42:06.541Z,74.60
2018-10-07T08:43:06.546Z,74.11
2018-10-07T08:44:06.551Z,73.83
2018-10-07T08:45:06.558Z,73.44
2018-10-07T08:46:06.563Z,72.71
2018-10-07T08:47:06.571Z,72.86
2018-10-07T08:48:06.575Z,73.09
2018-10-07T08:49:06.585Z,73.73
2018-10-07T08:50:06.590Z,74.40
2018-10-07T08:51:06.590Z,73.00
2018-10-07T08:52:06.598Z,73.28
2018-10-07T08:53:06.602Z,72.80
2018-10-07T08:54:06.607Z,73.96
2018-10-07T08:55:06.613Z,73.09
2018-10-07T08:56:06.628Z,71.84
2018-10-07T08:57:06.624Z,72.03
2018-10-07T08:58:06.630Z,71.94
2018-10-07T08:59:06.637Z,71.36
2018-10-07T09:00:06.642Z,71.26
2018-10-07T09:01:06.646Z,71.75
2018-10-07T09:02:06.701Z,71.75
2018-10-07T09:03:06.660Z,72.13
2018-10-07T09:04:06.672Z,72.07
2018-10-07T09:05:06.677Z,71.08
2018-10-07T09:06:06.685Z,71.17
2018-10-07T09:07:06.684Z,71.88
2018-10-07T09:08:06.688Z,71.94
2018-10-07T09:09:06.696Z,71.20
2018-10-07T09:10:06.713Z,71.11
2018-10-07T09:11:06.707Z,70.92
2018-10-07T09:12:06.713Z,70.62
2018-10-07T09:13:06.719Z,70.43
2018-10-07T09:14:06.727Z,70.43
2018-10-07T09:15:06.733Z,70.62
2018-10-07T09:16:06.745Z,71.11
2018-10-07T09:17:06.746Z,71.40
2018-10-07T09:18:06.759Z,70.82
2018-10-07T09:19:06.761Z,71.69
2018-10-07T09:20:06.762Z,71.20
2018-10-07T09:21:06.834Z,70.92
2018-10-07T09:22:06.774Z,70.62
2018-10-07T09:23:06.783Z,70.72
2018-10-07T09:24:06.797Z,70.82
2018-10-07T09:25:06.792Z,70.15
2018-10-07T09:26:06.803Z,70.62
2018-10-07T09:27:06.933Z,70.43
2018-10-07T09:28:06.819Z,70.53
2018-10-07T09:29:06.818Z,70.62
2018-10-07T09:30:06.824Z,70.34
2018-10-07T09:31:06.832Z,70.43
2018-10-07T09:32:06.849Z,71.01
2018-10-07T09:33:06.842Z,70.82
2018-10-07T09:34:06.854Z,70.28
2018-10-07T09:35:06.859Z,70.53
2018-10-07T09:36:06.863Z,70.62
2018-10-07T09:37:06.878Z,70.72
2018-10-07T09:38:06.876Z,70.56
2018-10-07T09:39:06.889Z,70.18
2018-10-07T09:40:06.888Z,69.51
2018-10-07T09:41:06.896Z,69.70
2018-10-07T09:42:06.900Z,70.28
2018-10-07T09:43:06.907Z,70.66
2018-10-07T09:44:06.913Z,69.70
2018-10-07T09:45:06.921Z,69.89
2018-10-07T09:46:06.926Z,69.41
2018-10-07T09:47:06.977Z,69.22
2018-10-07T09:48:06.939Z,70.09
2018-10-07T09:49:06.955Z,71.04
2018-10-07T09:50:06.954Z,70.76
2018-10-07T09:51:06.960Z,70.66
2018-10-07T09:52:06.989Z,70.76
2018-10-07T09:53:06.973Z,70.47
2018-10-07T09:54:06.980Z,70.28
2018-10-07T09:55:06.987Z,70.37
2018-10-07T09:56:06.992Z,69.79
2018-10-07T09:57:07.002Z,70.66
2018-10-07T09:58:07.069Z,70.56
2018-10-07T09:59:07.015Z,71.53
2018-10-07T10:00:07.022Z,71.43
2018-10-07T10:01:07.039Z,70.56
2018-10-07T10:02:07.035Z,70.76
2018-10-07T10:03:07.042Z,71.53
2018-10-07T10:04:07.115Z,71.24
2018-10-07T10:05:07.053Z,70.56
2018-10-07T10:06:07.060Z,70.02
2018-10-07T10:07:07.128Z,70.47
2018-10-07T10:08:07.074Z,70.50
2018-10-07T10:09:07.080Z,70.50
2018-10-07T10:10:07.088Z,70.31
2018-10-07T10:11:07.126Z,70.21
2018-10-07T10:12:07.102Z,69.64
2018-10-07T10:13:07.108Z,70.60
2018-10-07T10:14:07.155Z,70.31
2018-10-07T10:15:07.122Z,69.54
2018-10-07T10:16:07.129Z,69.73
2018-10-07T10:17:07.135Z,70.31
2018-10-07T10:18:07.147Z,69.64
2018-10-07T10:19:07.150Z,69.73
2018-10-07T10:20:07.157Z,69.45
2018-10-07T10:21:07.163Z,69.15
2018-10-07T10:22:07.171Z,69.73
2018-10-07T10:23:07.178Z,69.83
2018-10-07T10:24:07.183Z,70.12
2018-10-07T10:25:07.191Z,69.19
2018-10-07T10:26:07.200Z,69.67
2018-10-07T10:27:07.204Z,70.64
2018-10-07T10:28:07.220Z,68.99
2018-10-07T10:29:07.219Z,68.90
2018-10-07T10:30:07.284Z,68.80
2018-10-07T10:31:07.234Z,68.96
2018-10-07T10:32:07.241Z,68.71
2018-10-07T10:33:07.248Z,69.25
2018-10-07T10:34:07.259Z,69.19
2018-10-07T10:35:07.263Z,69.38
2018-10-07T10:36:07.275Z,68.90
2018-10-07T10:37:07.277Z,68.52
2018-10-07T10:38:07.284Z,69.19
2018-10-07T10:39:07.291Z,68.99
2018-10-07T10:40:07.438Z,68.52
2018-10-07T10:41:07.306Z,68.23
2018-10-07T10:42:07.313Z,68.90
2018-10-07T10:43:07.321Z,68.71
2018-10-07T10:44:07.327Z,67.36
2018-10-07T10:45:07.334Z,67.74
2018-10-07T10:46:07.343Z,68.61
2018-10-07T10:47:07.350Z,68.61
2018-10-07T10:48:07.361Z,68.61
2018-10-07T10:49:07.366Z,68.99
2018-10-07T10:50:07.372Z,69.13
2018-10-07T10:51:07.378Z,67.88
2018-10-07T10:52:07.392Z,67.74
2018-10-07T10:53:07.418Z,67.30
2018-10-07T10:54:07.400Z,68.35
2018-10-07T10:55:07.436Z,67.88
2018-10-07T10:56:07.416Z,67.88
2018-10-07T10:57:07.429Z,68.07
2018-10-07T10:58:07.429Z,67.07
2018-10-07T10:59:07.437Z,67.84
2018-10-07T11:00:07.444Z,68.07
2018-10-07T11:01:07.524Z,67.88
2018-10-07T11:02:07.461Z,66.91
2018-10-07T11:03:07.471Z,67.10
2018-10-07T11:04:07.474Z,67.97
2018-10-07T11:05:07.483Z,68.07
2018-10-07T11:06:07.489Z,67.97
2018-10-07T11:07:07.501Z,67.58
2018-10-07T11:08:07.504Z,67.49
2018-10-07T11:09:07.534Z,67.10
2018-10-07T11:10:07.528Z,67.49
2018-10-07T11:11:07.527Z,66.52
2018-10-07T11:12:07.535Z,66.24
2018-10-07T11:13:07.542Z,66.33
2018-10-07T11:14:07.551Z,65.95
2018-10-07T11:15:07.557Z,66.52
2018-10-07T11:16:07.564Z,66.91
2018-10-07T11:17:07.573Z,66.43
2018-10-07T11:18:07.581Z,66.14
2018-10-07T11:19:07.591Z,66.04
2018-10-07T11:20:07.597Z,66.52
2018-10-07T11:21:07.605Z,66.43
2018-10-07T11:22:07.615Z,66.75
2018-10-07T11:23:07.622Z,66.46
2018-10-07T11:24:07.628Z,66.27
2018-10-07T11:25:07.633Z,65.98
2018-10-07T11:26:07.655Z,65.59
2018-10-07T11:27:07.649Z,65.69
2018-10-07T11:28:07.656Z,65.88
2018-10-07T11:29:07.665Z,65.01
2018-10-07T11:30:07.672Z,65.11
2018-10-07T11:31:07.682Z,64.82
2018-10-07T11:32:07.688Z,65.01
2018-10-07T11:33:07.695Z,65.98
2018-10-07T11:34:07.708Z,65.98
2018-10-07T11:35:07.714Z,65.78
2018-10-07T11:36:07.722Z,65.69
2018-10-07T11:37:07.731Z,65.50
2018-10-07T11:38:07.734Z,65.59
2018-10-07T11:39:07.742Z,65.59
2018-10-07T11:40:07.749Z,65.01
2018-10-07T11:41:07.756Z,65.88
2018-10-07T11:42:07.771Z,65.88
2018-10-07T11:43:07.774Z,65.88
2018-10-07T11:44:07.784Z,65.88
2018-10-07T11:45:07.788Z,65.59
2018-10-07T11:46:07.797Z,65.63
2018-10-07T11:47:07.806Z,65.43
2018-10-07T11:48:07.811Z,64.95
2018-10-07T11:49:07.821Z,65.63
2018-10-07T11:50:07.828Z,64.86
2018-10-07T11:51:07.843Z,63.60
2018-10-07T11:52:07.849Z,63.79
2018-10-07T11:53:07.857Z,63.70
2018-10-07T11:54:07.866Z,63.21
2018-10-07T11:55:07.881Z,63.02
2018-10-07T11:56:07.877Z,63.31
2018-10-07T11:57:07.884Z,63.31
2018-10-07T11:58:07.892Z,63.98
2018-10-07T11:59:07.911Z,63.89
2018-10-07T12:00:07.908Z,63.31
2018-10-07T12:01:07.922Z,63.60
2018-10-07T12:02:07.986Z,63.40
2018-10-07T12:03:07.944Z,64.66
2018-10-07T12:04:07.947Z,64.28
2018-10-07T12:05:07.956Z,64.18
2018-10-07T12:06:07.959Z,63.79
2018-10-07T12:07:07.968Z,63.21
2018-10-07T12:08:07.976Z,63.12
2018-10-07T12:09:07.982Z,63.79
2018-10-07T12:10:08.046Z,63.98
2018-10-07T12:11:07.998Z,63.40
2018-10-07T12:12:08.007Z,63.50
2018-10-07T12:13:08.013Z,63.40
2018-10-07T12:14:08.023Z,63.60
2018-10-07T12:15:08.031Z,63.02
2018-10-07T12:16:08.039Z,63.12
2018-10-07T12:17:08.048Z,62.54
2018-10-07T12:18:08.054Z,62.25
2018-10-07T12:19:08.063Z,62.15
2018-10-07T12:20:08.071Z,62.15
2018-10-07T12:21:08.081Z,61.70
2018-10-07T12:22:08.089Z,61.80
2018-10-07T12:23:08.098Z,61.86
2018-10-07T12:24:08.104Z,62.08
2018-10-07T12:25:08.122Z,61.41
2018-10-07T12:26:08.122Z,61.41
2018-10-07T12:27:08.128Z,61.51
2018-10-07T12:28:08.135Z,62.08
2018-10-07T12:29:08.224Z,61.51
2018-10-07T12:30:08.168Z,61.12
2018-10-07T12:31:08.164Z,62.08
2018-10-07T12:32:08.168Z,61.89
2018-10-07T12:33:08.178Z,62.18
2018-10-07T12:34:08.187Z,61.89
2018-10-07T12:35:08.208Z,62.18
2018-10-07T12:36:08.203Z,61.41
2018-10-07T12:37:08.210Z,61.99
2018-10-07T12:38:08.222Z,62.18
2018-10-07T12:39:08.237Z,61.89
2018-10-07T12:40:08.238Z,61.22
2018-10-07T12:41:08.250Z,62.18
2018-10-07T12:42:08.315Z,61.99
2018-10-07T12:43:08.264Z,61.99
2018-10-07T12:44:08.268Z,61.41
2018-10-07T12:45:08.280Z,61.41
2018-10-07T12:46:08.307Z,61.41
2018-10-07T12:47:08.297Z,62.18
2018-10-07T12:48:08.302Z,62.28
2018-10-07T12:49:08.313Z,61.89
2018-10-07T12:50:08.320Z,61.41
2018-10-07T12:51:08.333Z,61.60
2018-10-07T12:52:08.338Z,61.41